Somerset, Massachusetts
Current Conditions -  °F | °C
As of 4:53 PM on Thursday 18 Dec 2014 (Local Time) from KEWB Reporting Station
Overcast Overcast  
Wind Chill: 34°   Ceiling: 3600
Heat Index: 40°   Visibility: 10mi
Dew Point: 29°   Wind: 8mph
Humidity: 65%   Direction: 280°W
Pressure: 29.83"   Gusts: NA
Location:  41.75°N, 71.14°W
Report Text: KEWB 182153Z 28007KT 10SM OVC036 04/M02 A2983 RMK AO2 SLP101 T00441017
Loading
Personal Weather Stations






























Interactive Weather Map New forecast layout! Learn more

10-Day Weather Forecast

Advertisements
Track Severe Weather on mobile